Terminal Aerodrome Forecast
Issued by NWS

Home | Current Version | Previous Version | Text Only | Print | Product List | Glossary On
Versions: 1 2 3 4 5 6 7 8 9 10 11 12 13 14 15 16 17 18 19 20 21 22 23 24 25 26 27 28 29 30
000
FTUS44 KHGX 302334
TAFIAH
TAF
KIAH 302334Z 3100/0106 09008KT P6SM SCT170 BKN250
     FM310200 VRB02KT P6SM SCT250
     FM311500 06007KT P6SM SCT030 BKN250 PROB30 3120/3124 SHRA
      BKN040
     FM010000 03004KT P6SM BKN250=

USA.gov is the U.S. government's official web portal to all federal, state and local government web resources and services.